Scroll down
FLIGHT INFORMATION
Cathay Pacific

CPA749

At Arrival Gate

VHHH
 RJAA
DATE: 2019-01-05
GATE:  -
GATE DEPARTURE: 19:18
TAKEOFF: 19:26
DATE: 2019-01-05
GATE:  -
LANDING: 22:36
GATE ARRIVAL: 22:42
FLIGHT DATA
Crew: -HIDDEN-
Speed: 513 kts Altitude: 39000 ft
Stage Length: 1599 nm
Route: OCEAN RASSE CONGA ENVAR DADON EXTRA RENOT TONGA TOROX ANLOT PILOX SANAS KUDOS LEKOS MORSU MOLKA MAMOD MUMBA MELEN MOMPA MIDAI MADOG MEXIR IMPAL OTOWA BILLY TAERU BUNGU BAFFY CHEVY SYOYU ANGEL BINKS
Block Time: 3.4 Flight Time: 3.2
Fuel Used: 71180 LB
TRACK DATA
50000 FT1000 KT
AIRCRAFT INFORMATION
Aircraft Type: B748F
Registration: B-LJF
SELCAL: DREJ MSN/LN: 39243 / 1447
Operator: CATHAY PACIFIC
Flights: 2 Block Time: 21.2 Flight Time: 20.8
Fuel Used: 402425 LB
  • DEPARTURE INFORMATION
    Date: 2019-01-05
    Airport: VHHH
    Gate:  -
    Gate Departure: 19:18
    Takeoff: 19:26
    ARRIVAL INFORMATION
    Date: 2019-01-05
    Airport: RJAA
    Gate:  -
    Landing: 22:36
    Gate Arrival: 22:42
  • FLIGHT DATA
    Crew: -HIDDEN-
    Speed: 513 kts Altitude: 39000 ft
    Stage Length: 863 nm
    Route: OCEAN RASSE CONGA ENVAR DADON EXTRA RENOT TONGA TOROX ANLOT PILOX SANAS KUDOS LEKOS MORSU MOLKA MAMOD MUMBA MELEN MOMPA MIDAI MADOG MEXIR IMPAL OTOWA BILLY TAERU BUNGU BAFFY CHEVY SYOYU ANGEL BINKS
    Block Time: 3.4 Flight Time: 3.2
    Fuel Used: 71180 LB
  • AIRCRAFT INFORMATION
    Aircraft Type: B748F
    Registration: B-LJF
    SELCAL: DREJ MSN/LN: 39243 / 1447
    Operator: Cathay Pacific
    Flights: 2 Block Time: 21.2 Flight Time: 20.8
    Fuel Used: 402425 LB

DATALINK LOG | Newest first | Current as of: 2020-09-29 10:42:47
LABEL SEQUENCE CONTENT Dn/Up
QD425222:42 32.5▼ Dn
QC361922:36▼ Dn
463621/OV MDO /TM 2136 /FL390 /TP B748 /SK OVC /TA -21 /WV 270/150 /RM ▼ Dn
2U3147RJGG 052100Z 35017KT 9999 FEW020 SCT060 BKN/// 06/M02 Q1019 NOSIG▲ Up
2S3147RJGG▼ Dn
2U2955RJAA 052100Z 03005KT 9999 FEW030 01/M08 Q1017 NOSIG RMK 1CU030 A3004▲ Up
2S2955RJAA▼ Dn
462626/OV KUD10 /TM 2026 /FL390 /TP B748 /SK BKN /TA -20 /WV 260/90 /RM TWR CU TOPS FL370▼ Dn
GA3431ADVANCED GATE ASSIGNMENTS NOT YET AVAILABLE AT THIS AIRPORT▲ Up
GR2156RJAA 22:33 MAAS YP/UM WCHR/S/C DIPL/VIP YES▼ Dn
QB264519:26▼ Dn
QA181119:18 104▼ Dn


AIRCRAFT HISTORY
FLIGHT DATE FLIGHT NO. ORIGIN DESTINATION ROUTE BLOCK TIME FLIGHT TIME FUEL USED (LB) PILOT
2019-01-05CPA749VHHH RJAA OCEAN RASSE CONGA ENVAR DADON EXTRA RENOT TONGA TOROX ANLOT PILOX SANAS KUDOS LEKOS MORSU MOLKA MAMOD MUMBA MELEN MOMPA MIDAI MADOG MEXIR IMPAL OTOWA BILLY TAERU BUNGU BAFFY CHEVY SYOYU ANGEL BINKS3.43.271180-HIDDEN-
2018-11-21CPA2674KPAE VHHH ARRIE TOU YAZ FINGS SIMSU CAFTA YZP KALTS KATCH HMPTN GRIZZ CJAYY 58N60 OGGOE NANDY NATES NIKLL NYMPH NUZAN NRKEY NIPPI NOGAL NUBDA NANNO NODAN ASTER SDE GTC NESKO SAMON DRIPS MIHOU HALNA STOUT DGC FUE ESBIS IGMON BULAN OSTAR AISAR DRAKE ANNNA APU HLG SWORD MKG KADLO ANPOG ELATO MAGOG ENPET FISHA ABBEY14.113.8331245Aaron Buchanan